sensor_id;sensor_type;location;lat;lon;timestamp;pressure;altitude;pressure_sealevel;temperature;humidity
78986;BME280;68384;55.750;48.746;2023-06-14T00:01:00;99742.09;;;12.63;42.04
78986;BME280;68384;55.750;48.746;2023-06-14T00:02:05;99734.28;;;12.63;41.97
78986;BME280;68384;55.750;48.746;2023-06-14T00:03:12;99734.38;;;12.66;41.85
78986;BME280;68384;55.750;48.746;2023-06-14T00:04:20;99735.25;;;12.67;41.75
78986;BME280;68384;55.750;48.746;2023-06-14T00:05:24;99728.28;;;12.66;41.80
78986;BME280;68384;55.750;48.746;2023-06-14T00:06:28;99736.13;;;12.68;41.67
78986;BME280;68384;55.750;48.746;2023-06-14T00:07:36;99735.31;;;12.69;41.83
78986;BME280;68384;55.750;48.746;2023-06-14T00:08:40;99736.13;;;12.68;41.74
78986;BME280;68384;55.750;48.746;2023-06-14T00:09:44;99733.59;;;12.71;41.52
78986;BME280;68384;55.750;48.746;2023-06-14T00:10:47;99731.03;;;12.72;41.42
78986;BME280;68384;55.750;48.746;2023-06-14T00:11:51;99731.06;;;12.74;41.51
78986;BME280;68384;55.750;48.746;2023-06-14T00:12:54;99731.09;;;12.75;41.50
78986;BME280;68384;55.750;48.746;2023-06-14T00:13:58;99727.66;;;12.76;41.40
78986;BME280;68384;55.750;48.746;2023-06-14T00:15:01;99725.06;;;12.78;41.59
78986;BME280;68384;55.750;48.746;2023-06-14T00:16:07;99726.84;;;12.80;41.41
78986;BME280;68384;55.750;48.746;2023-06-14T00:17:10;99721.72;;;12.82;41.36
78986;BME280;68384;55.750;48.746;2023-06-14T00:18:16;99727.81;;;12.84;41.27
78986;BME280;68384;55.750;48.746;2023-06-14T00:19:18;99723.50;;;12.84;41.52
78986;BME280;68384;55.750;48.746;2023-06-14T00:20:23;99720.06;;;12.87;41.17
78986;BME280;68384;55.750;48.746;2023-06-14T00:21:26;99718.34;;;12.87;41.27
78986;BME280;68384;55.750;48.746;2023-06-14T00:22:31;99715.78;;;12.89;41.38
78986;BME280;68384;55.750;48.746;2023-06-14T00:23:34;99715.81;;;12.90;41.37
78986;BME280;68384;55.750;48.746;2023-06-14T00:24:38;99714.13;;;12.92;41.41
78986;BME280;68384;55.750;48.746;2023-06-14T00:25:40;99709.81;;;12.93;41.30
78986;BME280;68384;55.750;48.746;2023-06-14T00:26:44;99720.22;;;12.93;41.44
78986;BME280;68384;55.750;48.746;2023-06-14T00:27:47;99712.41;;;12.94;41.46
78986;BME280;68384;55.750;48.746;2023-06-14T00:28:51;99709.88;;;12.96;41.44
78986;BME280;68384;55.750;48.746;2023-06-14T00:29:54;99710.72;;;12.96;41.46
78986;BME280;68384;55.750;48.746;2023-06-14T00:31:01;99714.19;;;12.95;41.42
78986;BME280;68384;55.750;48.746;2023-06-14T00:32:04;99713.38;;;12.98;41.32
78986;BME280;68384;55.750;48.746;2023-06-14T00:33:09;99705.56;;;12.99;41.28
78986;BME280;68384;55.750;48.746;2023-06-14T00:34:15;99695.91;;;12.92;41.53
78986;BME280;68384;55.750;48.746;2023-06-14T00:35:18;99714.31;;;13.01;41.47
78986;BME280;68384;55.750;48.746;2023-06-14T00:36:21;99712.56;;;13.02;41.37
78986;BME280;68384;55.750;48.746;2023-06-14T00:37:24;99714.34;;;13.03;41.33
78986;BME280;68384;55.750;48.746;2023-06-14T00:38:28;99718.72;;;13.04;41.31
78986;BME280;68384;55.750;48.746;2023-06-14T00:39:31;99718.72;;;13.04;41.40
78986;BME280;68384;55.750;48.746;2023-06-14T00:40:35;99722.22;;;13.06;41.32
78986;BME280;68384;55.750;48.746;2023-06-14T00:41:38;99719.63;;;13.07;41.29
78986;BME280;68384;55.750;48.746;2023-06-14T00:42:42;99717.97;;;13.09;41.13
78986;BME280;68384;55.750;48.746;2023-06-14T00:43:46;99720.56;;;13.11;41.30
78986;BME280;68384;55.750;48.746;2023-06-14T00:44:50;99717.13;;;13.12;41.15
78986;BME280;68384;55.750;48.746;2023-06-14T00:45:53;99711.94;;;13.12;41.39
78986;BME280;68384;55.750;48.746;2023-06-14T00:46:56;99711.13;;;13.16;41.13
78986;BME280;68384;55.750;48.746;2023-06-14T00:48:00;99710.28;;;13.17;41.11
78986;BME280;68384;55.750;48.746;2023-06-14T00:49:05;99710.34;;;13.20;41.11
78986;BME280;68384;55.750;48.746;2023-06-14T00:50:09;99716.47;;;13.22;41.18
78986;BME280;68384;55.750;48.746;2023-06-14T00:51:13;99710.41;;;13.23;41.09
78986;BME280;68384;55.750;48.746;2023-06-14T00:52:16;99715.63;;;13.24;40.94
78986;BME280;68384;55.750;48.746;2023-06-14T00:53:21;99711.31;;;13.26;41.03
78986;BME280;68384;55.750;48.746;2023-06-14T00:54:26;99711.31;;;13.26;41.14
78986;BME280;68384;55.750;48.746;2023-06-14T00:55:30;99714.88;;;13.30;41.18
78986;BME280;68384;55.750;48.746;2023-06-14T00:56:33;99703.59;;;13.30;41.10
78986;BME280;68384;55.750;48.746;2023-06-14T00:57:37;99720.16;;;13.32;41.42
78986;BME280;68384;55.750;48.746;2023-06-14T00:58:41;99712.38;;;13.33;41.50
78986;BME280;68384;55.750;48.746;2023-06-14T00:59:47;99712.38;;;13.35;41.58
78986;BME280;68384;55.750;48.746;2023-06-14T01:00:51;99716.75;;;13.36;41.71
78986;BME280;68384;55.750;48.746;2023-06-14T01:01:54;99720.25;;;13.38;41.83
78986;BME280;68384;55.750;48.746;2023-06-14T01:02:58;99722.91;;;13.39;42.02
78986;BME280;68384;55.750;48.746;2023-06-14T01:04:02;99722.03;;;13.39;42.10
78986;BME280;68384;55.750;48.746;2023-06-14T01:05:06;99722.03;;;13.40;42.17
78986;BME280;68384;55.750;48.746;2023-06-14T01:06:21;99723.78;;;13.40;42.04
78986;BME280;68384;55.750;48.746;2023-06-14T01:07:40;99726.41;;;13.41;41.99
78986;BME280;68384;55.750;48.746;2023-06-14T01:08:51;99717.72;;;13.41;41.72
78986;BME280;68384;55.750;48.746;2023-06-14T01:10:10;99721.22;;;13.41;42.12
78986;BME280;68384;55.750;48.746;2023-06-14T01:11:23;99725.53;;;13.41;42.19
78986;BME280;68384;55.750;48.746;2023-06-14T01:12:33;99727.25;;;13.40;42.46
78986;BME280;68384;55.750;48.746;2023-06-14T01:13:44;99722.91;;;13.39;42.42
78986;BME280;68384;55.750;48.746;2023-06-14T01:14:50;99723.78;;;13.40;42.70
78986;BME280;68384;55.750;48.746;2023-06-14T01:15:54;99720.25;;;13.38;42.64
78986;BME280;68384;55.750;48.746;2023-06-14T01:16:59;99721.13;;;13.38;42.78
78986;BME280;68384;55.750;48.746;2023-06-14T01:18:05;99726.34;;;13.38;42.96
78986;BME280;68384;55.750;48.746;2023-06-14T01:19:11;99721.97;;;13.37;42.93
78986;BME280;68384;55.750;48.746;2023-06-14T01:20:16;99730.69;;;13.38;43.02
78986;BME280;68384;55.750;48.746;2023-06-14T01:21:24;99724.63;;;13.39;43.28
78986;BME280;68384;55.750;48.746;2023-06-14T01:22:28;99722.88;;;13.38;43.41
78986;BME280;68384;55.750;48.746;2023-06-14T01:23:33;99727.22;;;13.39;43.08
78986;BME280;68384;55.750;48.746;2023-06-14T01:24:36;99726.34;;;13.38;43.08
78986;BME280;68384;55.750;48.746;2023-06-14T01:25:41;99724.63;;;13.39;43.11
78986;BME280;68384;55.750;48.746;2023-06-14T01:26:47;99725.50;;;13.39;43.35
78986;BME280;68384;55.750;48.746;2023-06-14T01:27:57;99724.66;;;13.40;43.22
78986;BME280;68384;55.750;48.746;2023-06-14T01:29:01;99724.66;;;13.40;43.21
78986;BME280;68384;55.750;48.746;2023-06-14T01:30:07;99719.44;;;13.40;43.27
78986;BME280;68384;55.750;48.746;2023-06-14T01:31:17;99724.66;;;13.40;43.29
78986;BME280;68384;55.750;48.746;2023-06-14T01:32:23;99722.09;;;13.43;43.54
78986;BME280;68384;55.750;48.746;2023-06-14T01:33:28;99716.06;;;13.44;43.19
78986;BME280;68384;55.750;48.746;2023-06-14T01:34:33;99714.34;;;13.45;43.33
78986;BME280;68384;55.750;48.746;2023-06-14T01:35:36;99716.13;;;13.47;43.29
78986;BME280;68384;55.750;48.746;2023-06-14T01:36:41;99712.63;;;13.48;43.23
78986;BME280;68384;55.750;48.746;2023-06-14T01:37:47;99710.09;;;13.50;43.27
78986;BME280;68384;55.750;48.746;2023-06-14T01:38:53;99714.44;;;13.51;43.36
78986;BME280;68384;55.750;48.746;2023-06-14T01:39:59;99715.34;;;13.53;43.34
78986;BME280;68384;55.750;48.746;2023-06-14T01:41:04;99708.44;;;13.55;43.23
78986;BME280;68384;55.750;48.746;2023-06-14T01:42:08;99712.81;;;13.57;43.14
78986;BME280;68384;55.750;48.746;2023-06-14T01:43:14;99716.31;;;13.59;43.28
78986;BME280;68384;55.750;48.746;2023-06-14T01:44:19;99710.28;;;13.60;43.18
78986;BME280;68384;55.750;48.746;2023-06-14T01:45:23;99707.66;;;13.60;42.95
78986;BME280;68384;55.750;48.746;2023-06-14T01:46:26;99711.22;;;13.65;43.06
78986;BME280;68384;55.750;48.746;2023-06-14T01:47:31;99710.38;;;13.66;43.07
78986;BME280;68384;55.750;48.746;2023-06-14T01:48:34;99708.69;;;13.68;43.06
78986;BME280;68384;55.750;48.746;2023-06-14T01:49:38;99707.84;;;13.69;43.04
78986;BME280;68384;55.750;48.746;2023-06-14T01:50:41;99713.06;;;13.71;43.16
78986;BME280;68384;55.750;48.746;2023-06-14T01:51:45;99704.38;;;13.70;42.86
78986;BME280;68384;55.750;48.746;2023-06-14T01:52:48;99709.69;;;13.75;42.98
78986;BME280;68384;55.750;48.746;2023-06-14T01:53:53;99706.19;;;13.76;42.97
78986;BME280;68384;55.750;48.746;2023-06-14T01:54:57;99707.94;;;13.75;42.86
78986;BME280;68384;55.750;48.746;2023-06-14T01:56:04;99699.31;;;13.78;42.87
78986;BME280;68384;55.750;48.746;2023-06-14T01:57:07;99707.97;;;13.78;42.96
78986;BME280;68384;55.750;48.746;2023-06-14T01:58:12;99694.94;;;13.78;43.17
78986;BME280;68384;55.750;48.746;2023-06-14T01:59:16;99708.91;;;13.80;42.99
78986;BME280;68384;55.750;48.746;2023-06-14T02:00:20;99708.91;;;13.82;43.13
78986;BME280;68384;55.750;48.746;2023-06-14T02:01:27;99714.13;;;13.83;43.04
78986;BME280;68384;55.750;48.746;2023-06-14T02:02:31;99708.97;;;13.87;42.97
78986;BME280;68384;55.750;48.746;2023-06-14T02:03:35;99705.53;;;13.86;43.26
78986;BME280;68384;55.750;48.746;2023-06-14T02:04:40;99705.56;;;13.89;43.07
78986;BME280;68384;55.750;48.746;2023-06-14T02:05:43;99702.09;;;13.89;43.33
78986;BME280;68384;55.750;48.746;2023-06-14T02:06:47;99706.44;;;13.90;43.40
78986;BME280;68384;55.750;48.746;2023-06-14T02:07:50;99696.06;;;13.93;43.18
78986;BME280;68384;55.750;48.746;2023-06-14T02:08:55;99704.78;;;13.95;43.17
78986;BME280;68384;55.750;48.746;2023-06-14T02:09:58;99698.72;;;13.96;43.34
78986;BME280;68384;55.750;48.746;2023-06-14T02:11:02;99704.81;;;13.98;43.47
78986;BME280;68384;55.750;48.746;2023-06-14T02:12:06;99699.66;;;13.99;43.11
78986;BME280;68384;55.750;48.746;2023-06-14T02:13:10;99699.66;;;14.01;43.36
78986;BME280;68384;55.750;48.746;2023-06-14T02:14:14;99704.94;;;14.02;43.29
78986;BME280;68384;55.750;48.746;2023-06-14T02:15:19;99704.09;;;14.06;43.40
78986;BME280;68384;55.750;48.746;2023-06-14T02:16:22;99696.34;;;14.08;43.39
78986;BME280;68384;55.750;48.746;2023-06-14T02:17:27;99697.22;;;14.10;43.33
78986;BME280;68384;55.750;48.746;2023-06-14T02:18:30;99699.81;;;14.10;43.43
78986;BME280;68384;55.750;48.746;2023-06-14T02:19:34;99700.75;;;14.13;43.42
78986;BME280;68384;55.750;48.746;2023-06-14T02:20:38;99708.59;;;14.15;43.31
78986;BME280;68384;55.750;48.746;2023-06-14T02:21:42;99700.78;;;14.16;43.28
78986;BME280;68384;55.750;48.746;2023-06-14T02:22:47;99701.66;;;14.17;43.46
78986;BME280;68384;55.750;48.746;2023-06-14T02:23:51;99700.81;;;14.18;43.28
78986;BME280;68384;55.750;48.746;2023-06-14T02:24:57;99702.59;;;14.20;43.28
78986;BME280;68384;55.750;48.746;2023-06-14T02:26:03;99697.44;;;14.23;43.18
78986;BME280;68384;55.750;48.746;2023-06-14T02:27:10;99693.97;;;14.24;43.36
78986;BME280;68384;55.750;48.746;2023-06-14T02:28:14;99695.75;;;14.28;43.14
78986;BME280;68384;55.750;48.746;2023-06-14T02:29:17;99714.06;;;14.30;43.22
78986;BME280;68384;55.750;48.746;2023-06-14T02:30:21;99700.16;;;14.31;43.26
78986;BME280;68384;55.750;48.746;2023-06-14T02:31:24;99709.69;;;14.30;43.21
78986;BME280;68384;55.750;48.746;2023-06-14T02:32:28;99702.78;;;14.32;43.07
78986;BME280;68384;55.750;48.746;2023-06-14T02:33:31;99699.25;;;14.30;43.36
78986;BME280;68384;55.750;48.746;2023-06-14T02:34:35;99699.31;;;14.32;43.55
78986;BME280;68384;55.750;48.746;2023-06-14T02:35:38;99697.59;;;14.32;43.35
78986;BME280;68384;55.750;48.746;2023-06-14T02:36:43;99693.22;;;14.33;43.32
78986;BME280;68384;55.750;48.746;2023-06-14T02:37:46;99696.72;;;14.33;43.50
78986;BME280;68384;55.750;48.746;2023-06-14T02:38:49;99692.38;;;14.34;43.30
78986;BME280;68384;55.750;48.746;2023-06-14T02:39:52;99694.97;;;14.34;43.46
78986;BME280;68384;55.750;48.746;2023-06-14T02:40:59;99688.03;;;14.34;43.63
78986;BME280;68384;55.750;48.746;2023-06-14T02:42:04;99686.31;;;14.35;43.67
78986;BME280;68384;55.750;48.746;2023-06-14T02:43:08;99696.75;;;14.36;43.72
78986;BME280;68384;55.750;48.746;2023-06-14T02:44:13;99695.91;;;14.39;43.62
78986;BME280;68384;55.750;48.746;2023-06-14T02:45:19;99702.03;;;14.41;43.78
78986;BME280;68384;55.750;48.746;2023-06-14T02:46:23;99689.03;;;14.42;43.60
78986;BME280;68384;55.750;48.746;2023-06-14T02:47:26;99691.69;;;14.46;43.24
78986;BME280;68384;55.750;48.746;2023-06-14T02:48:29;99699.59;;;14.49;43.29
78986;BME280;68384;55.750;48.746;2023-06-14T02:49:33;99686.56;;;14.50;43.34
78986;BME280;68384;55.750;48.746;2023-06-14T02:50:36;99688.38;;;14.56;43.43
78986;BME280;68384;55.750;48.746;2023-06-14T02:51:40;99681.47;;;14.59;43.40
78986;BME280;68384;55.750;48.746;2023-06-14T02:52:43;99685.00;;;14.63;43.13
78986;BME280;68384;55.750;48.746;2023-06-14T02:53:49;99675.50;;;14.68;42.67
78986;BME280;68384;55.750;48.746;2023-06-14T02:54:52;99684.25;;;14.73;42.64
78986;BME280;68384;55.750;48.746;2023-06-14T02:55:56;99685.19;;;14.78;42.50
78986;BME280;68384;55.750;48.746;2023-06-14T02:57:00;99681.78;;;14.82;42.71
78986;BME280;68384;55.750;48.746;2023-06-14T02:58:04;99687.13;;;14.94;42.37
78986;BME280;68384;55.750;48.746;2023-06-14T02:59:08;99685.50;;;15.00;42.26
78986;BME280;68384;55.750;48.746;2023-06-14T03:00:13;99681.28;;;15.12;42.52
78986;BME280;68384;55.750;48.746;2023-06-14T03:01:19;99681.31;;;15.18;42.55
78986;BME280;68384;55.750;48.746;2023-06-14T03:02:24;99678.78;;;15.24;42.44
78986;BME280;68384;55.750;48.746;2023-06-14T03:03:27;99684.97;;;15.32;42.27
78986;BME280;68384;55.750;48.746;2023-06-14T03:04:31;99681.53;;;15.37;41.87
78986;BME280;68384;55.750;48.746;2023-06-14T03:05:47;99681.59;;;15.42;41.93
78986;BME280;68384;55.750;48.746;2023-06-14T03:06:56;99682.53;;;15.48;41.22
78986;BME280;68384;55.750;48.746;2023-06-14T03:07:59;99687.84;;;15.54;41.07
78986;BME280;68384;55.750;48.746;2023-06-14T03:09:04;99681.78;;;15.57;41.17
78986;BME280;68384;55.750;48.746;2023-06-14T03:10:11;99686.16;;;15.58;40.72
78986;BME280;68384;55.750;48.746;2023-06-14T03:11:17;99680.94;;;15.58;40.71
78986;BME280;68384;55.750;48.746;2023-06-14T03:12:25;99687.06;;;15.63;40.79
78986;BME280;68384;55.750;48.746;2023-06-14T03:13:29;99685.34;;;15.65;40.96
78986;BME280;68384;55.750;48.746;2023-06-14T03:14:35;99682.72;;;15.65;41.32
78986;BME280;68384;55.750;48.746;2023-06-14T03:15:39;99682.75;;;15.70;41.25
78986;BME280;68384;55.750;48.746;2023-06-14T03:16:44;99673.19;;;15.70;41.14
78986;BME280;68384;55.750;48.746;2023-06-14T03:17:48;99674.06;;;15.72;41.01
78986;BME280;68384;55.750;48.746;2023-06-14T03:18:52;99672.34;;;15.74;41.45
78986;BME280;68384;55.750;48.746;2023-06-14T03:19:56;99679.31;;;15.75;41.54
78986;BME280;68384;55.750;48.746;2023-06-14T03:20:59;99677.63;;;15.77;41.75
78986;BME280;68384;55.750;48.746;2023-06-14T03:22:05;99681.97;;;15.77;41.85
78986;BME280;68384;55.750;48.746;2023-06-14T03:23:12;99681.13;;;15.79;42.04
78986;BME280;68384;55.750;48.746;2023-06-14T03:24:16;99676.75;;;15.81;41.91
78986;BME280;68384;55.750;48.746;2023-06-14T03:25:20;99682.91;;;15.86;42.03
78986;BME280;68384;55.750;48.746;2023-06-14T03:26:26;99680.31;;;15.89;42.34
78986;BME280;68384;55.750;48.746;2023-06-14T03:27:32;99673.38;;;15.93;42.55
78986;BME280;68384;55.750;48.746;2023-06-14T03:28:37;99674.25;;;15.95;42.69
78986;BME280;68384;55.750;48.746;2023-06-14T03:29:40;99673.44;;;15.99;42.76
78986;BME280;68384;55.750;48.746;2023-06-14T03:30:44;99675.16;;;16.00;42.81
78986;BME280;68384;55.750;48.746;2023-06-14T03:31:57;99675.19;;;16.03;43.15
78986;BME280;68384;55.750;48.746;2023-06-14T03:33:09;99676.06;;;16.03;43.35
78986;BME280;68384;55.750;48.746;2023-06-14T03:34:15;99669.94;;;16.00;43.19
78986;BME280;68384;55.750;48.746;2023-06-14T03:35:18;99672.59;;;16.01;43.00
78986;BME280;68384;55.750;48.746;2023-06-14T03:36:23;99672.59;;;16.03;43.30
78986;BME280;68384;55.750;48.746;2023-06-14T03:37:29;99671.69;;;16.02;43.62
78986;BME280;68384;55.750;48.746;2023-06-14T03:38:32;99681.31;;;16.05;43.75
78986;BME280;68384;55.750;48.746;2023-06-14T03:39:38;99677.84;;;16.04;43.80
78986;BME280;68384;55.750;48.746;2023-06-14T03:40:53;99678.69;;;16.05;44.02
78986;BME280;68384;55.750;48.746;2023-06-14T03:41:56;99683.09;;;16.10;43.85
78986;BME280;68384;55.750;48.746;2023-06-14T03:43:02;99677.03;;;16.13;43.49
78986;BME280;68384;55.750;48.746;2023-06-14T03:44:05;99683.19;;;16.18;43.69
78986;BME280;68384;55.750;48.746;2023-06-14T03:45:09;99678.81;;;16.22;43.06
78986;BME280;68384;55.750;48.746;2023-06-14T03:46:13;99671.03;;;16.26;43.01
78986;BME280;68384;55.750;48.746;2023-06-14T03:47:16;99673.66;;;16.29;43.02
78986;BME280;68384;55.750;48.746;2023-06-14T03:48:21;99657.97;;;16.31;43.49
78986;BME280;68384;55.750;48.746;2023-06-14T03:49:24;99665.84;;;16.38;43.38
78986;BME280;68384;55.750;48.746;2023-06-14T03:50:28;99664.13;;;16.43;43.25
78986;BME280;68384;55.750;48.746;2023-06-14T03:51:31;99672.03;;;16.49;43.20
78986;BME280;68384;55.750;48.746;2023-06-14T03:52:37;99665.97;;;16.55;43.20
78986;BME280;68384;55.750;48.746;2023-06-14T03:53:40;99666.03;;;16.61;42.96
78986;BME280;68384;55.750;48.746;2023-06-14T03:55:05;99672.19;;;16.67;42.75
78986;BME280;68384;55.750;48.746;2023-06-14T03:56:11;99674.81;;;16.72;42.13
78986;BME280;68384;55.750;48.746;2023-06-14T03:57:18;99670.50;;;16.79;42.16
78986;BME280;68384;55.750;48.746;2023-06-14T03:58:25;99663.50;;;16.82;41.96
78986;BME280;68384;55.750;48.746;2023-06-14T03:59:30;99671.38;;;16.90;41.82
78986;BME280;68384;55.750;48.746;2023-06-14T04:00:33;99674.91;;;16.95;41.85
78986;BME280;68384;55.750;48.746;2023-06-14T04:01:38;99675.78;;;17.01;41.48
78986;BME280;68384;55.750;48.746;2023-06-14T04:02:50;99674.06;;;17.00;41.59
78986;BME280;68384;55.750;48.746;2023-06-14T04:03:54;99671.47;;;17.09;41.67
78986;BME280;68384;55.750;48.746;2023-06-14T04:04:58;99669.72;;;17.13;41.05
78986;BME280;68384;55.750;48.746;2023-06-14T04:06:04;99670.59;;;17.15;41.10
78986;BME280;68384;55.750;48.746;2023-06-14T04:07:08;99675.88;;;17.19;40.92
78986;BME280;68384;55.750;48.746;2023-06-14T04:08:11;99673.25;;;17.25;40.27
78986;BME280;68384;55.750;48.746;2023-06-14T04:09:16;99676.78;;;17.30;40.53
78986;BME280;68384;55.750;48.746;2023-06-14T04:10:21;99675.91;;;17.38;40.36
78986;BME280;68384;55.750;48.746;2023-06-14T04:11:24;99677.66;;;17.43;40.51
78986;BME280;68384;55.750;48.746;2023-06-14T04:12:28;99677.69;;;17.48;39.70
78986;BME280;68384;55.750;48.746;2023-06-14T04:13:33;99682.06;;;17.50;39.79
78986;BME280;68384;55.750;48.746;2023-06-14T04:14:39;99684.72;;;17.52;40.24
78986;BME280;68384;55.750;48.746;2023-06-14T04:15:45;99679.47;;;17.52;40.35
78986;BME280;68384;55.750;48.746;2023-06-14T04:16:53;99678.59;;;17.51;40.60
78986;BME280;68384;55.750;48.746;2023-06-14T04:17:57;99689.97;;;17.55;40.94
78986;BME280;68384;55.750;48.746;2023-06-14T04:19:00;99678.56;;;17.50;40.92
78986;BME280;68384;55.750;48.746;2023-06-14T04:20:06;99689.09;;;17.60;41.00
78986;BME280;68384;55.750;48.746;2023-06-14T04:21:12;99688.25;;;17.66;41.05
78986;BME280;68384;55.750;48.746;2023-06-14T04:22:16;99690.84;;;17.72;41.04
78986;BME280;68384;55.750;48.746;2023-06-14T04:23:18;99687.34;;;17.77;41.06
78986;BME280;68384;55.750;48.746;2023-06-14T04:24:24;99682.97;;;17.82;41.06
78986;BME280;68384;55.750;48.746;2023-06-14T04:25:34;99681.28;;;17.90;40.87
78986;BME280;68384;55.750;48.746;2023-06-14T04:26:38;99683.88;;;18.00;40.57
78986;BME280;68384;55.750;48.746;2023-06-14T04:27:42;99673.38;;;18.07;41.05
78986;BME280;68384;55.750;48.746;2023-06-14T04:28:47;99680.34;;;18.13;40.80
78986;BME280;68384;55.750;48.746;2023-06-14T04:29:52;99676.88;;;18.20;40.83
78986;BME280;68384;55.750;48.746;2023-06-14T04:31:02;99680.34;;;18.32;40.77
78986;BME280;68384;55.750;48.746;2023-06-14T04:32:07;99685.59;;;18.46;40.45
78986;BME280;68384;55.750;48.746;2023-06-14T04:33:13;99675.97;;;18.52;39.14
78986;BME280;68384;55.750;48.746;2023-06-14T04:34:17;99675.94;;;18.60;38.25
78986;BME280;68384;55.750;48.746;2023-06-14T04:35:26;99679.44;;;18.67;37.29
78986;BME280;68384;55.750;48.746;2023-06-14T04:36:30;99678.53;;;18.75;37.34
78986;BME280;68384;55.750;48.746;2023-06-14T04:37:37;99673.25;;;18.84;37.04
78986;BME280;68384;55.750;48.746;2023-06-14T04:38:44;99671.44;;;18.92;36.28
78986;BME280;68384;55.750;48.746;2023-06-14T04:39:48;99664.41;;;19.02;36.30
78986;BME280;68384;55.750;48.746;2023-06-14T04:40:52;99669.66;;;19.08;36.69
78986;BME280;68384;55.750;48.746;2023-06-14T04:41:58;99664.34;;;19.11;36.44
78986;BME280;68384;55.750;48.746;2023-06-14T04:43:03;99666.09;;;19.15;36.67
78986;BME280;68384;55.750;48.746;2023-06-14T04:44:11;99664.34;;;19.14;35.69
78986;BME280;68384;55.750;48.746;2023-06-14T04:45:19;99671.34;;;19.18;35.12
78986;BME280;68384;55.750;48.746;2023-06-14T04:46:25;99671.34;;;19.21;34.92
78986;BME280;68384;55.750;48.746;2023-06-14T04:47:30;99673.97;;;19.21;33.81
78986;BME280;68384;55.750;48.746;2023-06-14T04:48:34;99670.44;;;19.22;33.52
78986;BME280;68384;55.750;48.746;2023-06-14T04:49:37;99674.81;;;19.23;33.50
78986;BME280;68384;55.750;48.746;2023-06-14T04:50:42;99674.84;;;19.22;33.62
78986;BME280;68384;55.750;48.746;2023-06-14T04:51:45;99670.44;;;19.22;33.77
78986;BME280;68384;55.750;48.746;2023-06-14T04:52:53;99673.09;;;19.25;34.07
78986;BME280;68384;55.750;48.746;2023-06-14T04:53:56;99680.09;;;19.26;34.37
78986;BME280;68384;55.750;48.746;2023-06-14T04:55:01;99673.97;;;19.27;34.67
78986;BME280;68384;55.750;48.746;2023-06-14T04:56:05;99673.94;;;19.29;34.77
78986;BME280;68384;55.750;48.746;2023-06-14T04:57:10;99670.44;;;19.30;34.42
78986;BME280;68384;55.750;48.746;2023-06-14T04:58:18;99665.19;;;19.28;34.77
78986;BME280;68384;55.750;48.746;2023-06-14T04:59:23;99670.41;;;19.31;34.58
78986;BME280;68384;55.750;48.746;2023-06-14T05:00:26;99666.94;;;19.32;35.12
78986;BME280;68384;55.750;48.746;2023-06-14T05:01:30;99666.91;;;19.34;34.82
78986;BME280;68384;55.750;48.746;2023-06-14T05:02:34;99666.91;;;19.35;34.97
78986;BME280;68384;55.750;48.746;2023-06-14T05:03:39;99665.13;;;19.39;34.97
78986;BME280;68384;55.750;48.746;2023-06-14T05:04:43;99658.13;;;19.41;35.00
78986;BME280;68384;55.750;48.746;2023-06-14T05:05:47;99661.56;;;19.44;35.05
78986;BME280;68384;55.750;48.746;2023-06-14T05:06:52;99662.44;;;19.45;35.16
78986;BME280;68384;55.750;48.746;2023-06-14T05:07:57;99655.44;;;19.45;35.23
78986;BME280;68384;55.750;48.746;2023-06-14T05:09:00;99662.38;;;19.57;34.97
78986;BME280;68384;55.750;48.746;2023-06-14T05:10:05;99657.97;;;19.57;35.01
78986;BME280;68384;55.750;48.746;2023-06-14T05:11:08;99652.69;;;19.60;34.99
78986;BME280;68384;55.750;48.746;2023-06-14T05:12:12;99664.06;;;19.64;34.81
78986;BME280;68384;55.750;48.746;2023-06-14T05:13:15;99663.16;;;19.69;34.98
78986;BME280;68384;55.750;48.746;2023-06-14T05:14:20;99666.66;;;19.70;34.56
78986;BME280;68384;55.750;48.746;2023-06-14T05:15:27;99664.03;;;19.73;34.24
78986;BME280;68384;55.750;48.746;2023-06-14T05:16:31;99663.13;;;19.73;34.29
78986;BME280;68384;55.750;48.746;2023-06-14T05:17:34;99661.38;;;19.76;34.85
78986;BME280;68384;55.750;48.746;2023-06-14T05:18:39;99667.47;;;19.80;34.56
78986;BME280;68384;55.750;48.746;2023-06-14T05:19:43;99663.06;;;19.80;34.50
78986;BME280;68384;55.750;48.746;2023-06-14T05:20:46;99665.72;;;19.82;33.96
78986;BME280;68384;55.750;48.746;2023-06-14T05:21:49;99673.53;;;19.88;34.07
78986;BME280;68384;55.750;48.746;2023-06-14T05:22:54;99664.72;;;19.90;34.52
78986;BME280;68384;55.750;48.746;2023-06-14T05:23:57;99659.44;;;19.93;34.46
78986;BME280;68384;55.750;48.746;2023-06-14T05:25:01;99665.56;;;19.97;34.17
78986;BME280;68384;55.750;48.746;2023-06-14T05:26:05;99664.66;;;19.99;34.39
78986;BME280;68384;55.750;48.746;2023-06-14T05:27:09;99665.56;;;20.00;33.91
78986;BME280;68384;55.750;48.746;2023-06-14T05:28:12;99664.66;;;20.02;34.21
78986;BME280;68384;55.750;48.746;2023-06-14T05:29:16;99663.78;;;20.03;34.22
78986;BME280;68384;55.750;48.746;2023-06-14T05:30:18;99656.72;;;20.05;34.97
78986;BME280;68384;55.750;48.746;2023-06-14T05:31:24;99660.25;;;20.07;34.96
78986;BME280;68384;55.750;48.746;2023-06-14T05:32:28;99668.09;;;20.13;35.37
78986;BME280;68384;55.750;48.746;2023-06-14T05:33:32;99660.16;;;20.15;35.01
78986;BME280;68384;55.750;48.746;2023-06-14T05:34:35;99661.03;;;20.18;34.56
78986;BME280;68384;55.750;48.746;2023-06-14T05:35:39;99658.34;;;20.23;33.96
78986;BME280;68384;55.750;48.746;2023-06-14T05:36:42;99654.00;;;20.19;33.57
78986;BME280;68384;55.750;48.746;2023-06-14T05:37:46;99654.84;;;20.21;33.30
78986;BME280;68384;55.750;48.746;2023-06-14T05:38:50;99654.00;;;20.19;33.21
78986;BME280;68384;55.750;48.746;2023-06-14T05:39:59;99648.72;;;20.17;33.55